sensor_id;sensor_type;location;lat;lon;timestamp;P1;durP1;ratioP1;P2;durP2;ratioP2
42518;SDS011;28147;47.520;18.920;2023-04-03T00:00:31;6.18;;;3.22;;
42518;SDS011;28147;47.520;18.920;2023-04-03T00:02:57;6.35;;;3.53;;
42518;SDS011;28147;47.520;18.920;2023-04-03T00:05:23;6.10;;;3.33;;
42518;SDS011;28147;47.520;18.920;2023-04-03T00:07:48;5.47;;;3.38;;
42518;SDS011;28147;47.520;18.920;2023-04-03T00:10:14;5.97;;;3.05;;
42518;SDS011;28147;47.520;18.920;2023-04-03T00:12:40;4.45;;;2.53;;
42518;SDS011;28147;47.520;18.920;2023-04-03T00:15:06;5.43;;;3.22;;
42518;SDS011;28147;47.520;18.920;2023-04-03T00:17:32;5.60;;;3.03;;
42518;SDS011;28147;47.520;18.920;2023-04-03T00:19:57;7.10;;;3.33;;
42518;SDS011;28147;47.520;18.920;2023-04-03T00:22:23;4.35;;;2.45;;
42518;SDS011;28147;47.520;18.920;2023-04-03T00:24:48;3.97;;;2.30;;
42518;SDS011;28147;47.520;18.920;2023-04-03T00:27:14;4.22;;;2.33;;
42518;SDS011;28147;47.520;18.920;2023-04-03T00:29:40;5.03;;;2.97;;
42518;SDS011;28147;47.520;18.920;2023-04-03T00:32:06;4.65;;;2.33;;
42518;SDS011;28147;47.520;18.920;2023-04-03T00:34:31;4.45;;;2.03;;
42518;SDS011;28147;47.520;18.920;2023-04-03T00:36:57;4.93;;;2.58;;
42518;SDS011;28147;47.520;18.920;2023-04-03T00:39:22;4.20;;;2.60;;
42518;SDS011;28147;47.520;18.920;2023-04-03T00:41:47;5.97;;;3.22;;
42518;SDS011;28147;47.520;18.920;2023-04-03T00:46:45;4.22;;;2.38;;
42518;SDS011;28147;47.520;18.920;2023-04-03T00:49:10;6.22;;;2.67;;
42518;SDS011;28147;47.520;18.920;2023-04-03T00:51:35;4.32;;;2.53;;
42518;SDS011;28147;47.520;18.920;2023-04-03T00:54:02;5.72;;;2.92;;
42518;SDS011;28147;47.520;18.920;2023-04-03T00:56:31;5.53;;;2.85;;
42518;SDS011;28147;47.520;18.920;2023-04-03T00:59:04;5.55;;;2.47;;
42518;SDS011;28147;47.520;18.920;2023-04-03T01:01:33;4.25;;;2.50;;
42518;SDS011;28147;47.520;18.920;2023-04-03T01:04:00;5.07;;;2.47;;
42518;SDS011;28147;47.520;18.920;2023-04-03T01:06:28;4.03;;;2.10;;
42518;SDS011;28147;47.520;18.920;2023-04-03T01:08:59;5.25;;;3.00;;
42518;SDS011;28147;47.520;18.920;2023-04-03T01:11:25;6.00;;;2.50;;
42518;SDS011;28147;47.520;18.920;2023-04-03T01:13:52;4.78;;;2.42;;
42518;SDS011;28147;47.520;18.920;2023-04-03T01:16:18;3.92;;;2.03;;
42518;SDS011;28147;47.520;18.920;2023-04-03T01:18:44;4.68;;;2.40;;
42518;SDS011;28147;47.520;18.920;2023-04-03T01:26:53;4.93;;;2.35;;
42518;SDS011;28147;47.520;18.920;2023-04-03T01:29:18;4.53;;;2.63;;
42518;SDS011;28147;47.520;18.920;2023-04-03T01:31:57;3.80;;;2.28;;
42518;SDS011;28147;47.520;18.920;2023-04-03T01:34:27;4.55;;;2.28;;
42518;SDS011;28147;47.520;18.920;2023-04-03T01:36:56;3.97;;;2.08;;
42518;SDS011;28147;47.520;18.920;2023-04-03T01:39:22;3.92;;;2.20;;
42518;SDS011;28147;47.520;18.920;2023-04-03T01:41:48;3.50;;;1.92;;
42518;SDS011;28147;47.520;18.920;2023-04-03T01:44:14;4.82;;;2.22;;
42518;SDS011;28147;47.520;18.920;2023-04-03T01:46:39;4.07;;;2.22;;
42518;SDS011;28147;47.520;18.920;2023-04-03T01:49:06;3.78;;;1.67;;
42518;SDS011;28147;47.520;18.920;2023-04-03T01:51:31;3.75;;;2.20;;
42518;SDS011;28147;47.520;18.920;2023-04-03T01:53:58;3.78;;;1.92;;
42518;SDS011;28147;47.520;18.920;2023-04-03T01:56:23;3.78;;;2.22;;
42518;SDS011;28147;47.520;18.920;2023-04-03T01:58:48;3.47;;;1.77;;
42518;SDS011;28147;47.520;18.920;2023-04-03T02:01:14;3.95;;;2.30;;
42518;SDS011;28147;47.520;18.920;2023-04-03T02:03:40;3.92;;;2.00;;
42518;SDS011;28147;47.520;18.920;2023-04-03T02:06:05;3.65;;;1.92;;
42518;SDS011;28147;47.520;18.920;2023-04-03T02:08:31;3.75;;;1.90;;
42518;SDS011;28147;47.520;18.920;2023-04-03T02:10:56;5.10;;;2.17;;
42518;SDS011;28147;47.520;18.920;2023-04-03T02:13:22;3.22;;;1.73;;
42518;SDS011;28147;47.520;18.920;2023-04-03T02:15:47;3.45;;;1.83;;
42518;SDS011;28147;47.520;18.920;2023-04-03T02:18:13;3.55;;;1.73;;
42518;SDS011;28147;47.520;18.920;2023-04-03T02:20:39;2.60;;;1.70;;
42518;SDS011;28147;47.520;18.920;2023-04-03T02:23:04;3.47;;;1.95;;
42518;SDS011;28147;47.520;18.920;2023-04-03T02:25:30;3.92;;;2.33;;
42518;SDS011;28147;47.520;18.920;2023-04-03T02:27:57;3.92;;;2.08;;
42518;SDS011;28147;47.520;18.920;2023-04-03T02:30:22;3.75;;;1.80;;
42518;SDS011;28147;47.520;18.920;2023-04-03T02:32:47;3.90;;;1.95;;
42518;SDS011;28147;47.520;18.920;2023-04-03T02:35:13;2.42;;;1.52;;
42518;SDS011;28147;47.520;18.920;2023-04-03T02:37:38;4.05;;;1.95;;
42518;SDS011;28147;47.520;18.920;2023-04-03T02:40:05;3.28;;;1.65;;
42518;SDS011;28147;47.520;18.920;2023-04-03T02:42:31;5.07;;;2.33;;
42518;SDS011;28147;47.520;18.920;2023-04-03T02:44:57;3.53;;;1.92;;
42518;SDS011;28147;47.520;18.920;2023-04-03T02:47:22;3.13;;;1.73;;
42518;SDS011;28147;47.520;18.920;2023-04-03T02:49:48;2.92;;;1.50;;
42518;SDS011;28147;47.520;18.920;2023-04-03T02:52:13;3.78;;;1.95;;
42518;SDS011;28147;47.520;18.920;2023-04-03T02:54:39;3.47;;;2.03;;
42518;SDS011;28147;47.520;18.920;2023-04-03T02:57:05;3.25;;;1.80;;
42518;SDS011;28147;47.520;18.920;2023-04-03T02:59:33;3.33;;;1.90;;
42518;SDS011;28147;47.520;18.920;2023-04-03T03:01:59;4.07;;;1.67;;
42518;SDS011;28147;47.520;18.920;2023-04-03T03:04:24;3.75;;;1.65;;
42518;SDS011;28147;47.520;18.920;2023-04-03T03:06:50;4.28;;;1.98;;
42518;SDS011;28147;47.520;18.920;2023-04-03T03:09:16;3.70;;;2.13;;
42518;SDS011;28147;47.520;18.920;2023-04-03T03:11:42;3.22;;;1.73;;
42518;SDS011;28147;47.520;18.920;2023-04-03T03:14:07;3.88;;;2.20;;
42518;SDS011;28147;47.520;18.920;2023-04-03T03:16:33;3.08;;;1.75;;
42518;SDS011;28147;47.520;18.920;2023-04-03T03:18:58;3.65;;;2.05;;
42518;SDS011;28147;47.520;18.920;2023-04-03T03:21:24;3.42;;;2.13;;
42518;SDS011;28147;47.520;18.920;2023-04-03T03:23:50;3.72;;;2.10;;
42518;SDS011;28147;47.520;18.920;2023-04-03T03:26:15;4.32;;;2.38;;
42518;SDS011;28147;47.520;18.920;2023-04-03T03:28:41;4.38;;;2.15;;
42518;SDS011;28147;47.520;18.920;2023-04-03T03:31:06;4.70;;;2.47;;
42518;SDS011;28147;47.520;18.920;2023-04-03T03:33:33;3.97;;;2.25;;
42518;SDS011;28147;47.520;18.920;2023-04-03T03:35:59;3.42;;;1.88;;
42518;SDS011;28147;47.520;18.920;2023-04-03T03:38:25;4.57;;;2.00;;
42518;SDS011;28147;47.520;18.920;2023-04-03T03:40:50;3.42;;;2.15;;
42518;SDS011;28147;47.520;18.920;2023-04-03T03:43:16;3.95;;;2.40;;
42518;SDS011;28147;47.520;18.920;2023-04-03T03:45:42;2.78;;;1.60;;
42518;SDS011;28147;47.520;18.920;2023-04-03T03:48:08;5.05;;;1.88;;
42518;SDS011;28147;47.520;18.920;2023-04-03T03:50:34;5.47;;;2.30;;
42518;SDS011;28147;47.520;18.920;2023-04-03T03:52:59;3.70;;;1.88;;
42518;SDS011;28147;47.520;18.920;2023-04-03T03:55:25;3.50;;;1.77;;
42518;SDS011;28147;47.520;18.920;2023-04-03T03:57:51;4.13;;;2.42;;
42518;SDS011;28147;47.520;18.920;2023-04-03T04:00:16;4.95;;;2.45;;
42518;SDS011;28147;47.520;18.920;2023-04-03T04:02:42;3.50;;;1.95;;
42518;SDS011;28147;47.520;18.920;2023-04-03T04:05:08;4.95;;;2.17;;
42518;SDS011;28147;47.520;18.920;2023-04-03T04:07:34;4.93;;;2.70;;
42518;SDS011;28147;47.520;18.920;2023-04-03T04:09:59;4.93;;;2.05;;
42518;SDS011;28147;47.520;18.920;2023-04-03T04:12:25;5.03;;;2.53;;
42518;SDS011;28147;47.520;18.920;2023-04-03T04:14:50;3.35;;;2.00;;
42518;SDS011;28147;47.520;18.920;2023-04-03T04:17:16;4.32;;;2.10;;
42518;SDS011;28147;47.520;18.920;2023-04-03T04:19:41;4.47;;;2.30;;
42518;SDS011;28147;47.520;18.920;2023-04-03T04:22:07;3.83;;;2.08;;
42518;SDS011;28147;47.520;18.920;2023-04-03T04:24:32;4.57;;;2.40;;
42518;SDS011;28147;47.520;18.920;2023-04-03T04:26:58;4.03;;;2.25;;
42518;SDS011;28147;47.520;18.920;2023-04-03T04:29:23;4.18;;;2.47;;
42518;SDS011;28147;47.520;18.920;2023-04-03T04:31:49;3.60;;;2.08;;
42518;SDS011;28147;47.520;18.920;2023-04-03T04:34:14;3.33;;;1.90;;
42518;SDS011;28147;47.520;18.920;2023-04-03T04:36:40;5.88;;;2.58;;
42518;SDS011;28147;47.520;18.920;2023-04-03T04:39:10;5.22;;;2.58;;
42518;SDS011;28147;47.520;18.920;2023-04-03T04:41:36;4.45;;;2.38;;
42518;SDS011;28147;47.520;18.920;2023-04-03T04:44:04;4.95;;;2.13;;
42518;SDS011;28147;47.520;18.920;2023-04-03T04:46:30;3.25;;;2.00;;
42518;SDS011;28147;47.520;18.920;2023-04-03T04:48:55;4.00;;;2.38;;
42518;SDS011;28147;47.520;18.920;2023-04-03T04:51:20;4.75;;;2.70;;
42518;SDS011;28147;47.520;18.920;2023-04-03T04:53:46;3.45;;;1.90;;
42518;SDS011;28147;47.520;18.920;2023-04-03T04:56:11;4.32;;;2.58;;
42518;SDS011;28147;47.520;18.920;2023-04-03T04:58:37;4.55;;;2.22;;
42518;SDS011;28147;47.520;18.920;2023-04-03T05:01:07;5.03;;;2.33;;
42518;SDS011;28147;47.520;18.920;2023-04-03T05:03:34;5.10;;;2.38;;
42518;SDS011;28147;47.520;18.920;2023-04-03T05:06:00;4.18;;;2.20;;
42518;SDS011;28147;47.520;18.920;2023-04-03T05:08:26;5.70;;;2.70;;
42518;SDS011;28147;47.520;18.920;2023-04-03T05:10:52;4.18;;;2.15;;
42518;SDS011;28147;47.520;18.920;2023-04-03T05:13:18;4.38;;;2.20;;
42518;SDS011;28147;47.520;18.920;2023-04-03T05:15:44;5.25;;;2.47;;
42518;SDS011;28147;47.520;18.920;2023-04-03T05:18:10;3.95;;;2.20;;
42518;SDS011;28147;47.520;18.920;2023-04-03T05:20:35;4.47;;;2.50;;
42518;SDS011;28147;47.520;18.920;2023-04-03T05:23:02;4.05;;;1.92;;
42518;SDS011;28147;47.520;18.920;2023-04-03T05:25:28;3.55;;;1.90;;
42518;SDS011;28147;47.520;18.920;2023-04-03T05:28:01;3.90;;;1.92;;
42518;SDS011;28147;47.520;18.920;2023-04-03T05:30:27;3.05;;;1.60;;
42518;SDS011;28147;47.520;18.920;2023-04-03T05:32:52;3.90;;;1.88;;
42518;SDS011;28147;47.520;18.920;2023-04-03T05:35:20;4.22;;;1.88;;
42518;SDS011;28147;47.520;18.920;2023-04-03T05:37:46;2.90;;;1.50;;
42518;SDS011;28147;47.520;18.920;2023-04-03T05:40:11;5.30;;;1.58;;
42518;SDS011;28147;47.520;18.920;2023-04-03T05:42:37;5.00;;;2.35;;
42518;SDS011;28147;47.520;18.920;2023-04-03T05:45:02;3.97;;;1.98;;
42518;SDS011;28147;47.520;18.920;2023-04-03T05:47:28;4.45;;;1.98;;
42518;SDS011;28147;47.520;18.920;2023-04-03T05:49:53;2.20;;;1.60;;
42518;SDS011;28147;47.520;18.920;2023-04-03T05:52:27;3.20;;;1.70;;
42518;SDS011;28147;47.520;18.920;2023-04-03T05:54:57;5.38;;;2.55;;
42518;SDS011;28147;47.520;18.920;2023-04-03T05:57:23;4.13;;;1.80;;
42518;SDS011;28147;47.520;18.920;2023-04-03T05:59:49;3.10;;;1.67;;
42518;SDS011;28147;47.520;18.920;2023-04-03T06:02:19;3.60;;;2.08;;
42518;SDS011;28147;47.520;18.920;2023-04-03T06:04:46;3.30;;;1.60;;
42518;SDS011;28147;47.520;18.920;2023-04-03T06:07:22;3.75;;;1.63;;
42518;SDS011;28147;47.520;18.920;2023-04-03T06:09:52;3.00;;;1.63;;
42518;SDS011;28147;47.520;18.920;2023-04-03T06:12:18;3.13;;;1.73;;
42518;SDS011;28147;47.520;18.920;2023-04-03T06:14:44;4.95;;;1.73;;
42518;SDS011;28147;47.520;18.920;2023-04-03T06:17:10;2.83;;;1.40;;
42518;SDS011;28147;47.520;18.920;2023-04-03T06:19:37;3.20;;;1.50;;
42518;SDS011;28147;47.520;18.920;2023-04-03T06:22:02;2.85;;;1.50;;
42518;SDS011;28147;47.520;18.920;2023-04-03T06:24:28;4.13;;;1.92;;
42518;SDS011;28147;47.520;18.920;2023-04-03T06:26:54;4.00;;;1.33;;
42518;SDS011;28147;47.520;18.920;2023-04-03T06:29:19;3.30;;;1.65;;
42518;SDS011;28147;47.520;18.920;2023-04-03T06:31:45;3.35;;;1.80;;
42518;SDS011;28147;47.520;18.920;2023-04-03T06:34:11;3.58;;;1.40;;
42518;SDS011;28147;47.520;18.920;2023-04-03T06:36:37;3.17;;;1.77;;
42518;SDS011;28147;47.520;18.920;2023-04-03T06:39:03;2.95;;;1.55;;
42518;SDS011;28147;47.520;18.920;2023-04-03T06:41:29;3.72;;;1.67;;
42518;SDS011;28147;47.520;18.920;2023-04-03T06:43:55;3.88;;;1.75;;
42518;SDS011;28147;47.520;18.920;2023-04-03T06:46:24;3.42;;;1.60;;
42518;SDS011;28147;47.520;18.920;2023-04-03T06:48:50;3.10;;;1.60;;
42518;SDS011;28147;47.520;18.920;2023-04-03T06:51:20;2.28;;;1.40;;
42518;SDS011;28147;47.520;18.920;2023-04-03T06:53:48;2.92;;;1.50;;
42518;SDS011;28147;47.520;18.920;2023-04-03T06:56:15;4.15;;;1.77;;
42518;SDS011;28147;47.520;18.920;2023-04-03T06:58:41;2.88;;;1.35;;
42518;SDS011;28147;47.520;18.920;2023-04-03T07:01:07;2.55;;;1.40;;
42518;SDS011;28147;47.520;18.920;2023-04-03T07:03:35;1.83;;;1.10;;
42518;SDS011;28147;47.520;18.920;2023-04-03T07:06:01;2.45;;;1.48;;
42518;SDS011;28147;47.520;18.920;2023-04-03T07:08:26;3.75;;;1.35;;
42518;SDS011;28147;47.520;18.920;2023-04-03T07:10:51;2.20;;;1.13;;
42518;SDS011;28147;47.520;18.920;2023-04-03T07:13:17;4.47;;;1.60;;
42518;SDS011;28147;47.520;18.920;2023-04-03T07:15:42;2.83;;;1.25;;
42518;SDS011;28147;47.520;18.920;2023-04-03T07:18:09;2.55;;;1.20;;
42518;SDS011;28147;47.520;18.920;2023-04-03T07:20:34;3.45;;;1.30;;
42518;SDS011;28147;47.520;18.920;2023-04-03T07:23:00;1.92;;;1.02;;
42518;SDS011;28147;47.520;18.920;2023-04-03T07:25:27;3.08;;;1.30;;
42518;SDS011;28147;47.520;18.920;2023-04-03T07:27:52;3.35;;;1.10;;
42518;SDS011;28147;47.520;18.920;2023-04-03T07:30:19;3.10;;;1.38;;
42518;SDS011;28147;47.520;18.920;2023-04-03T07:32:45;2.58;;;1.23;;
42518;SDS011;28147;47.520;18.920;2023-04-03T07:35:11;3.08;;;1.42;;
42518;SDS011;28147;47.520;18.920;2023-04-03T07:37:36;2.30;;;1.10;;
42518;SDS011;28147;47.520;18.920;2023-04-03T07:40:02;2.20;;;1.10;;
42518;SDS011;28147;47.520;18.920;2023-04-03T07:42:29;3.13;;;1.45;;
42518;SDS011;28147;47.520;18.920;2023-04-03T07:44:55;3.55;;;1.40;;
42518;SDS011;28147;47.520;18.920;2023-04-03T07:47:21;2.85;;;1.00;;
42518;SDS011;28147;47.520;18.920;2023-04-03T07:49:47;2.42;;;1.42;;
42518;SDS011;28147;47.520;18.920;2023-04-03T07:52:13;2.85;;;1.38;;
42518;SDS011;28147;47.520;18.920;2023-04-03T07:54:40;2.90;;;1.15;;
42518;SDS011;28147;47.520;18.920;2023-04-03T07:57:06;2.47;;;1.20;;
42518;SDS011;28147;47.520;18.920;2023-04-03T07:59:31;1.60;;;0.98;;
42518;SDS011;28147;47.520;18.920;2023-04-03T08:01:57;2.88;;;0.95;;
42518;SDS011;28147;47.520;18.920;2023-04-03T08:04:22;2.25;;;1.00;;
42518;SDS011;28147;47.520;18.920;2023-04-03T08:06:48;1.70;;;1.10;;
42518;SDS011;28147;47.520;18.920;2023-04-03T08:09:14;1.60;;;1.05;;
42518;SDS011;28147;47.520;18.920;2023-04-03T08:11:41;2.63;;;1.10;;
42518;SDS011;28147;47.520;18.920;2023-04-03T08:14:06;1.55;;;0.98;;
42518;SDS011;28147;47.520;18.920;2023-04-03T08:16:32;2.08;;;0.80;;
42518;SDS011;28147;47.520;18.920;2023-04-03T08:18:57;3.47;;;1.30;;
42518;SDS011;28147;47.520;18.920;2023-04-03T08:21:23;1.88;;;1.00;;
42518;SDS011;28147;47.520;18.920;2023-04-03T08:23:49;2.05;;;1.00;;
42518;SDS011;28147;47.520;18.920;2023-04-03T08:26:19;1.45;;;0.80;;
42518;SDS011;28147;47.520;18.920;2023-04-03T08:28:46;1.33;;;0.80;;
42518;SDS011;28147;47.520;18.920;2023-04-03T08:31:16;1.30;;;0.70;;
42518;SDS011;28147;47.520;18.920;2023-04-03T08:33:43;1.92;;;0.90;;
42518;SDS011;28147;47.520;18.920;2023-04-03T08:36:17;2.65;;;0.90;;
42518;SDS011;28147;47.520;18.920;2023-04-03T08:38:47;1.77;;;0.73;;
42518;SDS011;28147;47.520;18.920;2023-04-03T08:42:00;1.63;;;0.75;;
42518;SDS011;28147;47.520;18.920;2023-04-03T08:49:33;1.70;;;0.70;;
42518;SDS011;28147;47.520;18.920;2023-04-03T08:52:09;2.20;;;0.98;;
42518;SDS011;28147;47.520;18.920;2023-04-03T08:54:59;1.75;;;1.00;;
42518;SDS011;28147;47.520;18.920;2023-04-03T08:57:47;1.08;;;0.65;;
42518;SDS011;28147;47.520;18.920;2023-04-03T09:00:16;2.50;;;0.60;;
42518;SDS011;28147;47.520;18.920;2023-04-03T09:02:45;1.15;;;0.77;;
42518;SDS011;28147;47.520;18.920;2023-04-03T09:05:17;1.58;;;1.00;;
42518;SDS011;28147;47.520;18.920;2023-04-03T09:07:58;1.63;;;0.98;;
42518;SDS011;28147;47.520;18.920;2023-04-03T09:10:30;1.70;;;0.85;;
42518;SDS011;28147;47.520;18.920;2023-04-03T09:13:02;1.77;;;0.80;;
42518;SDS011;28147;47.520;18.920;2023-04-03T09:15:29;1.08;;;0.70;;
42518;SDS011;28147;47.520;18.920;2023-04-03T09:18:00;0.95;;;0.70;;
42518;SDS011;28147;47.520;18.920;2023-04-03T09:22:56;2.38;;;1.40;;
42518;SDS011;28147;47.520;18.920;2023-04-03T09:25:56;1.52;;;0.95;;
42518;SDS011;28147;47.520;18.920;2023-04-03T09:28:15;1.17;;;0.68;;
42518;SDS011;28147;47.520;18.920;2023-04-03T09:30:41;1.50;;;0.90;;
42518;SDS011;28147;47.520;18.920;2023-04-03T09:33:07;1.83;;;0.73;;
42518;SDS011;28147;47.520;18.920;2023-04-03T09:35:34;1.25;;;0.63;;
42518;SDS011;28147;47.520;18.920;2023-04-03T09:40:37;0.85;;;0.63;;
42518;SDS011;28147;47.520;18.920;2023-04-03T09:43:51;1.52;;;0.88;;
42518;SDS011;28147;47.520;18.920;2023-04-03T09:46:15;0.93;;;0.82;;
42518;SDS011;28147;47.520;18.920;2023-04-03T09:49:00;1.20;;;0.73;;
42518;SDS011;28147;47.520;18.920;2023-04-03T09:51:30;2.30;;;0.95;;
42518;SDS011;28147;47.520;18.920;2023-04-03T09:53:56;1.45;;;0.95;;
42518;SDS011;28147;47.520;18.920;2023-04-03T09:56:29;1.27;;;0.60;;
42518;SDS011;28147;47.520;18.920;2023-04-03T10:01:25;1.30;;;0.73;;
42518;SDS011;28147;47.520;18.920;2023-04-03T10:04:03;1.25;;;0.63;;
42518;SDS011;28147;47.520;18.920;2023-04-03T10:06:34;2.03;;;0.98;;
42518;SDS011;28147;47.520;18.920;2023-04-03T10:11:58;0.88;;;0.70;;
42518;SDS011;28147;47.520;18.920;2023-04-03T10:14:27;1.30;;;0.68;;
42518;SDS011;28147;47.520;18.920;2023-04-03T10:31:10;1.35;;;0.77;;
42518;SDS011;28147;47.520;18.920;2023-04-03T10:57:52;1.33;;;0.63;;
42518;SDS011;28147;47.520;18.920;2023-04-03T11:00:22;1.48;;;0.60;;
42518;SDS011;28147;47.520;18.920;2023-04-03T11:02:58;0.75;;;0.60;;
42518;SDS011;28147;47.520;18.920;2023-04-03T11:05:44;0.60;;;0.45;;
42518;SDS011;28147;47.520;18.920;2023-04-03T11:08:21;0.47;;;0.40;;
42518;SDS011;28147;47.520;18.920;2023-04-03T11:11:20;0.95;;;0.50;;
42518;SDS011;28147;47.520;18.920;2023-04-03T11:13:52;1.02;;;0.65;;
42518;SDS011;28147;47.520;18.920;2023-04-03T11:16:24;1.13;;;0.70;;
42518;SDS011;28147;47.520;18.920;2023-04-03T11:18:59;1.27;;;0.70;;
42518;SDS011;28147;47.520;18.920;2023-04-03T11:21:32;2.88;;;0.57;;
42518;SDS011;28147;47.520;18.920;2023-04-03T11:24:08;1.73;;;0.57;;
42518;SDS011;28147;47.520;18.920;2023-04-03T11:26:42;0.50;;;0.40;;
42518;SDS011;28147;47.520;18.920;2023-04-03T11:29:10;1.13;;;0.52;;
42518;SDS011;28147;47.520;18.920;2023-04-03T11:34:51;0.90;;;0.70;;
42518;SDS011;28147;47.520;18.920;2023-04-03T11:40:34;3.35;;;1.10;;
42518;SDS011;28147;47.520;18.920;2023-04-03T11:43:05;4.28;;;0.80;;
42518;SDS011;28147;47.520;18.920;2023-04-03T11:50:56;1.10;;;0.60;;
42518;SDS011;28147;47.520;18.920;2023-04-03T12:01:53;2.28;;;0.98;;
42518;SDS011;28147;47.520;18.920;2023-04-03T12:04:24;5.13;;;1.17;;
42518;SDS011;28147;47.520;18.920;2023-04-03T12:06:52;2.55;;;0.90;;
42518;SDS011;28147;47.520;18.920;2023-04-03T12:15:41;2.53;;;0.95;;
42518;SDS011;28147;47.520;18.920;2023-04-03T12:18:31;0.75;;;0.55;;
42518;SDS011;28147;47.520;18.920;2023-04-03T12:20:57;1.35;;;0.82;;
42518;SDS011;28147;47.520;18.920;2023-04-03T12:23:30;2.10;;;0.75;;
42518;SDS011;28147;47.520;18.920;2023-04-03T12:26:01;2.70;;;0.93;;
42518;SDS011;28147;47.520;18.920;2023-04-03T12:28:48;1.23;;;0.65;;
42518;SDS011;28147;47.520;18.920;2023-04-03T12:31:20;0.82;;;0.60;;
42518;SDS011;28147;47.520;18.920;2023-04-03T12:40:06;2.10;;;0.93;;
42518;SDS011;28147;47.520;18.920;2023-04-03T12:42:55;0.85;;;0.52;;
42518;SDS011;28147;47.520;18.920;2023-04-03T12:45:43;1.10;;;0.50;;
42518;SDS011;28147;47.520;18.920;2023-04-03T12:48:15;1.85;;;0.77;;
42518;SDS011;28147;47.520;18.920;2023-04-03T12:50:43;0.75;;;0.57;;
42518;SDS011;28147;47.520;18.920;2023-04-03T12:53:33;0.77;;;0.47;;
42518;SDS011;28147;47.520;18.920;2023-04-03T12:59:13;4.90;;;0.93;;
42518;SDS011;28147;47.520;18.920;2023-04-03T13:01:39;1.27;;;0.75;;
42518;SDS011;28147;47.520;18.920;2023-04-03T13:04:05;1.17;;;0.70;;
42518;SDS011;28147;47.520;18.920;2023-04-03T13:06:32;1.65;;;0.70;;
42518;SDS011;28147;47.520;18.920;2023-04-03T13:09:03;1.33;;;0.77;;
42518;SDS011;28147;47.520;18.920;2023-04-03T13:11:35;1.15;;;0.85;;
42518;SDS011;28147;47.520;18.920;2023-04-03T13:14:04;1.17;;;0.70;;
42518;SDS011;28147;47.520;18.920;2023-04-03T13:16:39;1.60;;;0.63;;
42518;SDS011;28147;47.520;18.920;2023-04-03T13:19:06;0.63;;;0.40;;
42518;SDS011;28147;47.520;18.920;2023-04-03T13:21:40;1.27;;;0.70;;
42518;SDS011;28147;47.520;18.920;2023-04-03T13:24:06;3.28;;;0.80;;
42518;SDS011;28147;47.520;18.920;2023-04-03T13:26:33;0.55;;;0.40;;
42518;SDS011;28147;47.520;18.920;2023-04-03T13:29:01;1.08;;;0.50;;
42518;SDS011;28147;47.520;18.920;2023-04-03T13:31:29;1.00;;;0.70;;
42518;SDS011;28147;47.520;18.920;2023-04-03T13:33:59;1.45;;;0.85;;
42518;SDS011;28147;47.520;18.920;2023-04-03T13:36:38;0.95;;;0.60;;
42518;SDS011;28147;47.520;18.920;2023-04-03T13:39:20;1.30;;;0.73;;
42518;SDS011;28147;47.520;18.920;2023-04-03T13:41:49;1.20;;;0.70;;
42518;SDS011;28147;47.520;18.920;2023-04-03T13:44:27;1.38;;;0.70;;
42518;SDS011;28147;47.520;18.920;2023-04-03T13:47:00;1.33;;;0.65;;
42518;SDS011;28147;47.520;18.920;2023-04-03T13:49:58;1.35;;;0.80;;
42518;SDS011;28147;47.520;18.920;2023-04-03T13:52:47;2.45;;;0.82;;
42518;SDS011;28147;47.520;18.920;2023-04-03T13:55:20;1.73;;;0.63;;
42518;SDS011;28147;47.520;18.920;2023-04-03T13:57:49;2.53;;;0.82;;
42518;SDS011;28147;47.520;18.920;2023-04-03T14:03:02;1.27;;;0.63;;
42518;SDS011;28147;47.520;18.920;2023-04-03T14:05:36;2.15;;;0.80;;
42518;SDS011;28147;47.520;18.920;2023-04-03T14:08:02;2.05;;;0.80;;
42518;SDS011;28147;47.520;18.920;2023-04-03T14:10:27;3.92;;;0.65;;
42518;SDS011;28147;47.520;18.920;2023-04-03T14:12:53;2.25;;;0.90;;
42518;SDS011;28147;47.520;18.920;2023-04-03T14:15:20;0.85;;;0.57;;
42518;SDS011;28147;47.520;18.920;2023-04-03T14:17:52;1.10;;;0.60;;
42518;SDS011;28147;47.520;18.920;2023-04-03T14:20:19;0.98;;;0.65;;
42518;SDS011;28147;47.520;18.920;2023-04-03T14:22:46;1.13;;;0.60;;
42518;SDS011;28147;47.520;18.920;2023-04-03T14:25:14;2.35;;;0.60;;
42518;SDS011;28147;47.520;18.920;2023-04-03T14:27:41;2.05;;;0.80;;
42518;SDS011;28147;47.520;18.920;2023-04-03T14:30:12;2.17;;;0.80;;
42518;SDS011;28147;47.520;18.920;2023-04-03T14:32:41;2.47;;;0.88;;
42518;SDS011;28147;47.520;18.920;2023-04-03T14:35:07;2.83;;;1.20;;
42518;SDS011;28147;47.520;18.920;2023-04-03T14:37:33;2.50;;;1.20;;
42518;SDS011;28147;47.520;18.920;2023-04-03T14:39:59;2.92;;;1.23;;
42518;SDS011;28147;47.520;18.920;2023-04-03T14:42:27;2.00;;;1.13;;
42518;SDS011;28147;47.520;18.920;2023-04-03T14:44:56;2.45;;;1.25;;
42518;SDS011;28147;47.520;18.920;2023-04-03T14:47:23;2.30;;;1.55;;
42518;SDS011;28147;47.520;18.920;2023-04-03T14:49:52;2.05;;;0.93;;
42518;SDS011;28147;47.520;18.920;2023-04-03T14:52:20;1.75;;;0.95;;
42518;SDS011;28147;47.520;18.920;2023-04-03T14:54:52;1.88;;;1.05;;
42518;SDS011;28147;47.520;18.920;2023-04-03T14:57:19;2.20;;;1.33;;
42518;SDS011;28147;47.520;18.920;2023-04-03T14:59:47;2.38;;;1.20;;
42518;SDS011;28147;47.520;18.920;2023-04-03T15:04:58;1.60;;;1.00;;
42518;SDS011;28147;47.520;18.920;2023-04-03T15:07:26;2.47;;;1.10;;
42518;SDS011;28147;47.520;18.920;2023-04-03T15:09:53;4.07;;;1.15;;
42518;SDS011;28147;47.520;18.920;2023-04-03T15:12:21;2.83;;;1.40;;
42518;SDS011;28147;47.520;18.920;2023-04-03T15:14:47;3.30;;;1.25;;
42518;SDS011;28147;47.520;18.920;2023-04-03T15:17:22;2.92;;;1.10;;
42518;SDS011;28147;47.520;18.920;2023-04-03T15:19:48;2.00;;;1.17;;
42518;SDS011;28147;47.520;18.920;2023-04-03T15:22:14;2.13;;;1.00;;
42518;SDS011;28147;47.520;18.920;2023-04-03T15:24:42;2.17;;;0.98;;
42518;SDS011;28147;47.520;18.920;2023-04-03T15:27:08;2.95;;;1.20;;
42518;SDS011;28147;47.520;18.920;2023-04-03T15:29:34;2.53;;;0.90;;
42518;SDS011;28147;47.520;18.920;2023-04-03T15:31:59;3.55;;;1.30;;
42518;SDS011;28147;47.520;18.920;2023-04-03T15:34:25;1.15;;;0.88;;
42518;SDS011;28147;47.520;18.920;2023-04-03T15:36:51;5.18;;;1.27;;
42518;SDS011;28147;47.520;18.920;2023-04-03T15:39:27;3.30;;;1.00;;
42518;SDS011;28147;47.520;18.920;2023-04-03T15:41:53;1.98;;;0.90;;
42518;SDS011;28147;47.520;18.920;2023-04-03T15:46:15;2.17;;;1.10;;
42518;SDS011;28147;47.520;18.920;2023-04-03T15:48:41;1.58;;;0.90;;
42518;SDS011;28147;47.520;18.920;2023-04-03T15:51:06;2.15;;;1.10;;
42518;SDS011;28147;47.520;18.920;2023-04-03T15:53:32;2.97;;;1.23;;
42518;SDS011;28147;47.520;18.920;2023-04-03T15:55:57;4.20;;;1.13;;
42518;SDS011;28147;47.520;18.920;2023-04-03T15:58:23;4.72;;;1.20;;
42518;SDS011;28147;47.520;18.920;2023-04-03T16:00:48;4.88;;;0.98;;
42518;SDS011;28147;47.520;18.920;2023-04-03T16:03:18;1.92;;;1.00;;
42518;SDS011;28147;47.520;18.920;2023-04-03T16:05:44;2.65;;;0.80;;
42518;SDS011;28147;47.520;18.920;2023-04-03T16:08:10;5.80;;;1.50;;
42518;SDS011;28147;47.520;18.920;2023-04-03T16:10:36;3.45;;;1.98;;
42518;SDS011;28147;47.520;18.920;2023-04-03T16:13:03;2.25;;;1.08;;
42518;SDS011;28147;47.520;18.920;2023-04-03T16:16:46;2.20;;;1.20;;
42518;SDS011;28147;47.520;18.920;2023-04-03T16:19:12;2.60;;;1.08;;
42518;SDS011;28147;47.520;18.920;2023-04-03T16:21:38;6.15;;;1.27;;
42518;SDS011;28147;47.520;18.920;2023-04-03T16:24:18;1.98;;;1.08;;
42518;SDS011;28147;47.520;18.920;2023-04-03T16:26:43;2.65;;;1.33;;